createdAt,value
2022-10-07T00:00:46.039Z,7.30
2022-10-07T00:04:47.810Z,7.30
2022-10-07T00:08:51.862Z,7.40
2022-10-07T00:12:53.774Z,7.50
2022-10-07T00:16:55.550Z,7.60
2022-10-07T00:20:57.272Z,7.70
2022-10-07T00:24:58.963Z,7.70
2022-10-07T00:29:01.030Z,7.80
2022-10-07T00:33:02.704Z,7.80
2022-10-07T00:37:04.364Z,7.80
2022-10-07T00:41:07.743Z,7.90
2022-10-07T00:45:14.903Z,7.90
2022-10-07T00:49:16.637Z,8.00
2022-10-07T00:53:18.753Z,8.00
2022-10-07T00:57:27.278Z,8.10
2022-10-07T01:01:29.372Z,8.00
2022-10-07T01:05:31.423Z,8.10
2022-10-07T01:09:33.523Z,8.10
2022-10-07T01:13:51.200Z,8.10
2022-10-07T01:18:13.210Z,8.10
2022-10-07T01:22:30.336Z,8.10
2022-10-07T01:26:34.969Z,8.10
2022-10-07T01:30:41.635Z,8.00
2022-10-07T01:34:45.588Z,8.10
2022-10-07T01:39:02.691Z,8.10
2022-10-07T01:43:05.873Z,8.10
2022-10-07T01:47:07.516Z,8.10
2022-10-07T01:51:09.383Z,8.10
2022-10-07T01:55:28.355Z,8.10
2022-10-07T01:59:50.528Z,8.10
2022-10-07T02:03:58.527Z,8.10
2022-10-07T02:08:33.646Z,8.10
2022-10-07T02:12:40.740Z,8.20
2022-10-07T02:16:47.030Z,8.10
2022-10-07T02:20:51.923Z,8.10
2022-10-07T02:24:55.378Z,8.10
2022-10-07T02:29:00.814Z,8.10
2022-10-07T02:33:06.045Z,8.10
2022-10-07T02:37:18.708Z,8.10
2022-10-07T02:41:35.350Z,8.20
2022-10-07T02:45:46.042Z,8.20
2022-10-07T02:49:53.052Z,8.30
2022-10-07T02:53:56.805Z,8.40
2022-10-07T02:58:02.664Z,8.40
2022-10-07T03:02:09.499Z,8.40
2022-10-07T03:06:13.965Z,8.50
2022-10-07T03:10:16.380Z,8.60
2022-10-07T03:14:18.892Z,8.60
2022-10-07T03:18:27.248Z,8.60
2022-10-07T03:22:29.418Z,8.60
2022-10-07T03:26:33.045Z,8.60
2022-10-07T03:30:34.662Z,8.70
2022-10-07T03:34:36.305Z,8.50
2022-10-07T03:38:38.578Z,8.40
2022-10-07T03:42:43.367Z,8.40
2022-10-07T03:46:48.559Z,8.30
2022-10-07T03:50:52.132Z,8.20
2022-10-07T03:54:56.021Z,8.20
2022-10-07T03:58:57.680Z,8.20
2022-10-07T04:02:59.353Z,8.10
2022-10-07T04:07:01.345Z,8.00
2022-10-07T04:11:04.279Z,8.10
2022-10-07T04:15:06.359Z,8.10
2022-10-07T04:19:08.085Z,8.10
2022-10-07T04:23:09.797Z,8.00
2022-10-07T04:27:23.489Z,8.00
2022-10-07T04:31:33.123Z,7.90
2022-10-07T04:35:38.586Z,7.90
2022-10-07T04:39:59.769Z,7.90
2022-10-07T04:44:02.060Z,7.90
2022-10-07T04:48:05.962Z,7.90
2022-10-07T04:52:07.635Z,8.00
2022-10-07T04:56:11.036Z,7.80
2022-10-07T05:00:13.231Z,7.90
2022-10-07T05:04:14.887Z,7.90
2022-10-07T05:08:18.351Z,7.90
2022-10-07T05:12:20.239Z,7.90
2022-10-07T05:16:22.515Z,7.80
2022-10-07T05:20:24.738Z,7.80
2022-10-07T05:24:26.443Z,7.80
2022-10-07T05:28:28.499Z,7.80
2022-10-07T05:32:30.195Z,7.70
2022-10-07T05:36:31.862Z,7.80
2022-10-07T05:40:33.557Z,7.80
2022-10-07T05:44:37.577Z,7.70
2022-10-07T05:48:40.041Z,7.70
2022-10-07T05:52:42.601Z,7.70
2022-10-07T05:56:44.420Z,7.70
2022-10-07T06:01:03.881Z,7.70
2022-10-07T06:05:07.462Z,7.80
2022-10-07T06:09:28.709Z,7.80
2022-10-07T06:13:30.847Z,7.90
2022-10-07T06:17:32.556Z,8.00
2022-10-07T06:21:34.192Z,8.00
2022-10-07T06:25:35.829Z,8.00
2022-10-07T06:29:37.487Z,8.00
2022-10-07T06:33:39.457Z,8.10
2022-10-07T06:37:41.163Z,8.10
2022-10-07T06:41:42.850Z,8.20
2022-10-07T06:45:44.536Z,8.20
2022-10-07T06:49:46.249Z,8.30
2022-10-07T06:53:52.400Z,8.40
2022-10-07T06:57:54.435Z,8.40
2022-10-07T07:01:56.195Z,8.40
2022-10-07T07:05:58.302Z,8.50
2022-10-07T07:09:59.969Z,8.60
2022-10-07T07:14:03.178Z,8.60
2022-10-07T07:18:07.292Z,8.70
2022-10-07T07:22:09.204Z,8.80
2022-10-07T07:26:10.990Z,8.90
2022-10-07T07:30:13.845Z,8.90
2022-10-07T07:34:15.560Z,9.00
2022-10-07T07:38:17.336Z,9.00
2022-10-07T07:42:19.084Z,9.20
2022-10-07T07:46:23.637Z,9.30
2022-10-07T07:50:27.196Z,9.30
2022-10-07T07:54:28.927Z,9.40
2022-10-07T07:58:30.851Z,9.50
2022-10-07T08:02:33.014Z,9.60
2022-10-07T08:06:34.774Z,9.70
2022-10-07T08:10:37.042Z,9.80
2022-10-07T08:14:39.021Z,9.90
2022-10-07T08:18:42.070Z,10.10
2022-10-07T08:22:45.814Z,10.10
2022-10-07T08:26:47.856Z,10.30
2022-10-07T08:30:51.034Z,10.30
2022-10-07T08:34:52.717Z,10.40
2022-10-07T08:38:54.913Z,10.70
2022-10-07T08:42:56.686Z,10.90
2022-10-07T08:47:06.439Z,11.40
2022-10-07T08:51:20.442Z,11.60
2022-10-07T08:55:41.437Z,11.70
2022-10-07T08:59:49.527Z,11.80
2022-10-07T09:04:08.639Z,11.90
2022-10-07T09:08:21.798Z,12.00
2022-10-07T09:12:38.184Z,12.30
2022-10-07T09:16:43.155Z,12.60
2022-10-07T09:20:53.147Z,13.00
2022-10-07T09:25:03.681Z,13.40
2022-10-07T09:29:09.542Z,13.60
2022-10-07T09:33:18.288Z,14.30
2022-10-07T09:37:20.498Z,15.90
2022-10-07T09:41:32.419Z,16.90
2022-10-07T09:45:34.964Z,17.80
2022-10-07T09:49:42.556Z,18.90
2022-10-07T09:53:59.234Z,19.20
2022-10-07T09:58:02.686Z,19.60
2022-10-07T10:02:13.604Z,18.90
2022-10-07T10:06:21.870Z,18.50
2022-10-07T10:10:30.895Z,18.40
2022-10-07T10:14:54.124Z,17.90
2022-10-07T10:19:02.240Z,18.00
2022-10-07T10:23:33.120Z,17.40
2022-10-07T10:27:46.306Z,17.10
2022-10-07T10:31:56.498Z,16.60
2022-10-07T10:36:20.582Z,16.30
2022-10-07T10:40:39.891Z,16.30
2022-10-07T10:45:07.854Z,16.00
2022-10-07T10:49:10.615Z,16.20
2022-10-07T10:53:29.327Z,16.10
2022-10-07T10:57:45.653Z,16.00
2022-10-07T11:01:55.268Z,16.00
2022-10-07T11:05:57.782Z,15.90
2022-10-07T11:10:16.919Z,16.00
2022-10-07T11:14:22.583Z,15.90
2022-10-07T11:18:48.467Z,16.10
2022-10-07T11:22:56.970Z,16.20
2022-10-07T11:27:10.456Z,16.20
2022-10-07T11:31:24.194Z,16.30
2022-10-07T11:35:35.881Z,16.50
2022-10-07T11:39:38.823Z,16.60
2022-10-07T11:43:46.209Z,16.70
2022-10-07T11:47:54.080Z,16.80
2022-10-07T11:52:26.648Z,16.90
2022-10-07T11:56:44.358Z,17.00
2022-10-07T12:00:46.255Z,17.40
2022-10-07T12:04:48.043Z,17.70
2022-10-07T12:08:49.727Z,17.90
2022-10-07T12:13:13.059Z,18.00
2022-10-07T12:17:22.109Z,18.00
2022-10-07T12:21:23.825Z,17.80
2022-10-07T12:25:32.218Z,17.80
2022-10-07T12:29:48.891Z,17.80
2022-10-07T12:34:03.782Z,17.80
2022-10-07T12:38:27.003Z,17.90
2022-10-07T12:42:29.708Z,18.00
2022-10-07T12:46:50.755Z,18.10
2022-10-07T12:50:56.983Z,18.10
2022-10-07T12:55:10.844Z,18.10
2022-10-07T12:59:50.097Z,18.00
2022-10-07T13:04:10.471Z,18.20
2022-10-07T13:08:46.467Z,18.10
2022-10-07T13:12:51.251Z,18.10
2022-10-07T13:17:01.974Z,18.40
2022-10-07T13:21:12.358Z,18.70
2022-10-07T13:25:17.339Z,18.70
2022-10-07T13:29:33.293Z,18.70
2022-10-07T13:33:35.147Z,18.90
2022-10-07T13:37:38.086Z,19.10
2022-10-07T13:41:49.742Z,19.00
2022-10-07T13:45:51.702Z,18.80
2022-10-07T13:49:54.310Z,18.80
2022-10-07T13:54:00.674Z,18.60
2022-10-07T13:58:04.436Z,18.60
2022-10-07T14:02:12.177Z,18.40
2022-10-07T14:06:54.691Z,18.60
2022-10-07T14:11:14.181Z,18.90
2022-10-07T14:15:25.456Z,19.20
2022-10-07T14:19:32.719Z,19.10
2022-10-07T14:23:37.617Z,19.00
2022-10-07T14:27:40.458Z,18.90
2022-10-07T14:32:00.760Z,18.70
2022-10-07T14:36:28.535Z,18.60
2022-10-07T14:40:30.497Z,18.40
2022-10-07T14:44:32.375Z,18.20
2022-10-07T14:48:34.058Z,18.10
2022-10-07T14:52:46.048Z,18.00
2022-10-07T14:56:47.935Z,18.00
2022-10-07T15:00:49.630Z,17.80
2022-10-07T15:04:51.402Z,17.70
2022-10-07T15:08:53.574Z,17.70
2022-10-07T15:12:56.092Z,17.70
2022-10-07T15:16:57.871Z,17.60
2022-10-07T15:20:59.645Z,17.50
2022-10-07T15:25:03.276Z,17.40
2022-10-07T15:29:07.651Z,17.40
2022-10-07T15:33:12.184Z,17.30
2022-10-07T15:37:14.327Z,17.10
2022-10-07T15:41:40.237Z,17.20
2022-10-07T15:45:45.211Z,17.00
2022-10-07T15:49:47.084Z,16.80
2022-10-07T15:53:48.773Z,16.60
2022-10-07T15:57:50.435Z,16.40
2022-10-07T16:01:52.416Z,16.40
2022-10-07T16:05:59.563Z,16.20
2022-10-07T16:10:01.321Z,16.10
2022-10-07T16:14:03.595Z,16.00
2022-10-07T16:18:06.459Z,15.80
2022-10-07T16:22:08.209Z,15.70
2022-10-07T16:26:19.417Z,15.60
2022-10-07T16:30:39.656Z,15.50
2022-10-07T16:34:43.508Z,15.40
2022-10-07T16:38:46.610Z,15.20
2022-10-07T16:42:48.595Z,14.90
2022-10-07T16:46:50.342Z,14.60
2022-10-07T16:50:52.064Z,14.40
2022-10-07T16:54:53.715Z,14.00
2022-10-07T16:58:57.154Z,13.70
2022-10-07T17:02:58.858Z,13.30
2022-10-07T17:07:00.619Z,13.00
2022-10-07T17:11:02.304Z,12.80
2022-10-07T17:15:04.474Z,12.60
2022-10-07T17:19:06.820Z,12.30
2022-10-07T17:23:08.487Z,12.10
2022-10-07T17:27:10.177Z,11.90
2022-10-07T17:31:13.473Z,11.70
2022-10-07T17:35:15.270Z,11.60
2022-10-07T17:39:18.927Z,11.40
2022-10-07T17:43:20.593Z,11.30
2022-10-07T17:47:22.327Z,11.10
2022-10-07T17:51:27.874Z,11.00
2022-10-07T17:55:29.560Z,10.80
2022-10-07T17:59:31.446Z,10.70
2022-10-07T18:03:33.250Z,10.60
2022-10-07T18:07:35.620Z,10.50
2022-10-07T18:11:56.025Z,10.40
2022-10-07T18:16:02.034Z,10.20
2022-10-07T18:20:07.287Z,10.20
2022-10-07T18:24:10.232Z,10.10
2022-10-07T18:28:13.068Z,10.00
2022-10-07T18:32:14.786Z,10.00
2022-10-07T18:36:19.182Z,9.90
2022-10-07T18:40:20.984Z,9.80
2022-10-07T18:44:22.753Z,9.70
2022-10-07T18:48:24.479Z,9.70
2022-10-07T18:52:26.188Z,9.60
2022-10-07T18:56:27.840Z,9.50
2022-10-07T19:00:29.512Z,9.40
2022-10-07T19:04:32.035Z,9.30
2022-10-07T19:08:34.231Z,9.20
2022-10-07T19:12:54.373Z,9.10
2022-10-07T19:16:56.104Z,9.10
2022-10-07T19:20:59.023Z,9.00
2022-10-07T19:25:19.280Z,9.10
2022-10-07T19:29:20.966Z,8.90
2022-10-07T19:33:23.948Z,8.90
2022-10-07T19:37:26.063Z,8.80
2022-10-07T19:41:30.972Z,8.70
2022-10-07T19:45:35.249Z,8.70
2022-10-07T19:49:38.389Z,8.60
2022-10-07T19:53:46.660Z,8.60
2022-10-07T19:57:49.890Z,8.50
2022-10-07T20:01:51.895Z,8.50
2022-10-07T20:05:53.703Z,8.50
2022-10-07T20:09:55.449Z,8.40
2022-10-07T20:13:57.169Z,8.40
2022-10-07T20:17:58.857Z,8.30
2022-10-07T20:22:01.202Z,8.20
2022-10-07T20:26:10.922Z,8.20
2022-10-07T20:30:17.854Z,8.10
2022-10-07T20:34:19.996Z,8.00
2022-10-07T20:38:21.653Z,8.10
2022-10-07T20:42:25.445Z,8.00
2022-10-07T20:46:27.274Z,8.00
2022-10-07T20:50:28.963Z,7.90
2022-10-07T20:54:31.906Z,7.90
2022-10-07T20:58:34.987Z,7.80
2022-10-07T21:02:36.795Z,7.80
2022-10-07T21:06:42.099Z,7.70
2022-10-07T21:10:43.736Z,7.70
2022-10-07T21:14:47.814Z,7.70
2022-10-07T21:18:50.266Z,7.70
2022-10-07T21:22:54.099Z,7.70
2022-10-07T21:26:55.770Z,7.70
2022-10-07T21:30:59.858Z,7.60
2022-10-07T21:35:01.624Z,7.60
2022-10-07T21:39:03.805Z,7.60
2022-10-07T21:43:05.452Z,7.60
2022-10-07T21:47:07.124Z,7.60
2022-10-07T21:51:09.876Z,7.50
2022-10-07T21:55:11.703Z,7.50
2022-10-07T21:59:14.261Z,7.50
2022-10-07T22:03:16.027Z,7.50
2022-10-07T22:07:36.494Z,7.50
2022-10-07T22:11:38.419Z,7.40
2022-10-07T22:15:40.115Z,7.40
2022-10-07T22:19:41.948Z,7.50
2022-10-07T22:23:43.875Z,7.40
2022-10-07T22:27:48.684Z,7.40
2022-10-07T22:31:50.354Z,7.40
2022-10-07T22:35:52.020Z,7.30
2022-10-07T22:39:53.757Z,7.30
2022-10-07T22:43:55.484Z,7.30
2022-10-07T22:47:57.189Z,7.30
2022-10-07T22:51:59.659Z,7.20
2022-10-07T22:56:07.013Z,7.30
2022-10-07T23:00:09.312Z,7.30
2022-10-07T23:04:11.028Z,7.30
2022-10-07T23:08:12.696Z,7.30
2022-10-07T23:12:14.351Z,7.30
2022-10-07T23:16:18.199Z,7.30
2022-10-07T23:20:19.972Z,7.30
2022-10-07T23:24:21.602Z,7.40
2022-10-07T23:28:25.676Z,7.50
2022-10-07T23:32:27.440Z,7.50
2022-10-07T23:36:30.191Z,7.50
2022-10-07T23:40:31.845Z,7.50
2022-10-07T23:44:34.183Z,7.60
2022-10-07T23:48:35.851Z,7.60
2022-10-07T23:52:38.795Z,7.70
2022-10-07T23:56:40.439Z,7.80
